Amunt
Inicio > meteoXarxa
Fes-te'n soci

METEOXARXA

la Pobla de Benifassà
Ubicació Colònia Europa
Comarca el Baix Maestrat
Altitud (msnm) 0
Posició geogràfica 40° 41' 49.92" N, 00° 9' 54.00" E
Model Instrumentació oficial
Presa de dades
Font de les dades AEMET
Estadístiques. Resum
Data Temperatura (ºC) Humitat (%) Pressió (hPa) Vent (km/h) Precipit. (mm)
Mínima Mitjana Màxima Mínima Mitjana Màxima Mínima Mitjana Màxima Predom. Mitjana Ràfega màxima Total Dies de pluja
Mínima Mitjana Màxima Mínima Mitjana Màxima
Últimes dades diàries
24-02-2017 0,2     4,5     8,8 63,0 11,8  
23-02-2017 8,1     11,7     15,3 23,0 0,0  
22-02-2017 4,2     8,9     13,7 19,0 0,0  
20-02-2017 1,4     5,8     10,2 26,0 0,0  
19-02-2017 2,1     4,8     7,6 29,0 0,0  
18-02-2017 1,6     5,6     9,7 22,0 0,0  
17-02-2017 1,8     5,8     9,8 26,0 0,2  
16-02-2017 2,9     5,0     7,2 25,0 0,4  
15-02-2017 2,2     5,7     9,2 19,0 0,2  
14-02-2017 2,5     6,3     10,2 51,0 0,0  
13-02-2017 3,5     5,6     7,7 69,0 9,6  
12-02-2017 4,1     4,5     5,0 69,0 0,2  
11-02-2017 0,7     2,7     4,7 53,0 3,4  
10-02-2017 -1,7     0,9     3,4 30,0 0,0  
09-02-2017 -2,0     2,5     7,1 92,0 0,0  
08-02-2017 -1,9     0,1     2,0 105,0 0,2  
07-02-2017 1,1     6,5     11,8 104,0 7,4  
06-02-2017 -0,3     3,6     7,6 118,0 0,0  
05-02-2017 0,6     4,6     8,7 114,0 2,4  
04-02-2017 5,4     9,0     12,7 79,0 0,0  
03-02-2017 2,2     6,5     10,9 68,0 0,0  
02-02-2017 3,6     5,5     7,4 61,0 5,0  
31-01-2017 5,0     8,2     11,4 15,0 0,0  
30-01-2017 4,9     7,1     9,4 36,0 0,0  
29-01-2017 -0,9     3,3     7,6 36,0 0,0  
28-01-2017 -0,1     1,7     3,5 82,0 9,4  
27-01-2017 0,4     2,2     4,0 48,0 12,0  
26-01-2017 -4,3     -1,7     1,0 25,0 5,0  
25-01-2017 -3,1     0,4     3,8 67,0 8,4  
24-01-2017 -1,7     0,6     2,9 69,0 7,2  
23-01-2017 -1,7     -0,6     0,5 66,0 6,2  
22-01-2017 -1,3     -0,8     -0,3 48,0 1,8  
Dades del mes en curs (actualitzades fins l'últim dia disponible)
02/2017 -2,0 1,9 8,1 5,3 2,0 8,7 15,3   118,0 40,8  
Últimes dades mensuals
01/2017 -9,4 -0,7 5,3 2,3 -1,7 5,2 14,7 123,0 81,4 13
12/2016 -0,8 2,9 6,3 5,8 2,9 8,6 15,9 71,0 63,8 10
11/2016 -0,7 3,8 10,7 7,1 5,1 10,3 18,9 100,0 81,2 13
10/2016 3,2 9,2 13,1 12,8 9,6 16,5 22,9 60,0 28,2 7
09/2016 6,9 12,1 21,5 16,5 13,4 20,9 31,6 83,0 58,6 7
08/2016 7,3 13,5 17,0 19,0 19,0 24,6 27,6 66,0 8,8 6
07/2016 6,1 14,4 18,5 19,8 20,2 25,2 33,3 75,0 2,2 4
06/2016 5,9 11,1 16,8 16,1 15,0 21,1 27,0 81,0 46,0 7
05/2016 -1,2 6,3 10,9 10,7 8,6 15,2 20,7 92,0 73,0 10
04/2016 -1,3 3,6 8,5 7,6 6,7 11,6 17,2 102,0 67,6 13
03/2016 -2,9 0,7 7,1 4,3 2,3 7,9 15,4 114,0 61,6 10
02/2016 -5,1 1,4 8,4 5,0 1,6 8,7 14,5 107,0 49,6 11
01/2016 -1,8 3,5 7,5 6,6 2,3 9,8 15,2 93,0 22,0 5
Dades de l'any en curs (actualitzades fins l'últim dia disponible)
2017 -9,4 0,4 8,1 3,5 -1,7 6,6 15,3   123,0 122,2  
Últimes dades anuals
2012 475,0
2013 -7,9 5,9 11,5 9,8 13,0 13,7 27,1 136,0 699,0 123